createdAt,value
2022-12-29T00:01:01.418Z,92.42
2022-12-29T00:03:28.739Z,91.54
2022-12-29T00:05:59.593Z,91.72
2022-12-29T00:08:41.011Z,92.49
2022-12-29T00:11:26.333Z,92.24
2022-12-29T00:14:12.929Z,91.83
2022-12-29T00:16:44.084Z,93.38
2022-12-29T00:19:32.538Z,94.27
2022-12-29T00:22:18.816Z,95.29
2022-12-29T00:25:01.416Z,93.63
2022-12-29T00:27:51.839Z,93.54
2022-12-29T00:30:39.927Z,93.25
2022-12-29T00:33:33.699Z,92.52
2022-12-29T00:36:12.850Z,94.12
2022-12-29T00:39:01.966Z,94.60
2022-12-29T00:41:47.580Z,93.22
2022-12-29T00:44:15.126Z,92.66
2022-12-29T00:46:43.984Z,91.26
2022-12-29T00:49:31.947Z,90.39
2022-12-29T00:52:07.910Z,89.93
2022-12-29T00:54:37.329Z,89.43
2022-12-29T00:57:06.274Z,88.87
2022-12-29T00:59:33.401Z,87.52
2022-12-29T01:02:01.319Z,87.72
2022-12-29T01:04:29.890Z,87.93
2022-12-29T01:06:57.035Z,87.86
2022-12-29T01:09:42.494Z,87.98
2022-12-29T01:12:10.613Z,86.81
2022-12-29T01:14:38.887Z,86.15
2022-12-29T01:17:07.084Z,86.04
2022-12-29T01:19:34.554Z,85.69
2022-12-29T01:22:01.699Z,85.74
2022-12-29T01:24:29.338Z,85.27
2022-12-29T01:26:56.505Z,84.98
2022-12-29T01:29:23.964Z,85.12
2022-12-29T01:31:51.288Z,84.48
2022-12-29T01:34:37.228Z,85.05
2022-12-29T01:37:04.367Z,84.21
2022-12-29T01:39:31.560Z,84.01
2022-12-29T01:41:58.691Z,83.95
2022-12-29T01:45:11.684Z,84.69
2022-12-29T01:48:02.763Z,83.21
2022-12-29T01:50:47.717Z,82.55
2022-12-29T01:53:25.564Z,82.79
2022-12-29T01:55:59.386Z,82.43
2022-12-29T01:58:33.713Z,81.86
2022-12-29T02:01:01.440Z,82.08
2022-12-29T02:03:30.673Z,81.21
2022-12-29T02:06:07.580Z,82.48
2022-12-29T02:08:34.768Z,83.89
2022-12-29T02:11:03.763Z,83.89
2022-12-29T02:13:35.305Z,83.60
2022-12-29T02:16:14.407Z,82.77
2022-12-29T02:18:50.008Z,82.15
2022-12-29T02:22:01.795Z,83.14
2022-12-29T02:25:00.857Z,83.04
2022-12-29T02:27:59.359Z,82.15
2022-12-29T02:30:54.469Z,83.09
2022-12-29T02:33:40.045Z,82.40
2022-12-29T02:36:20.659Z,82.33
2022-12-29T02:39:06.821Z,82.36
2022-12-29T02:41:47.188Z,81.73
2022-12-29T02:44:50.848Z,81.07
2022-12-29T02:47:29.155Z,81.44
2022-12-29T02:50:07.092Z,82.84
2022-12-29T02:52:50.651Z,83.21
2022-12-29T02:55:17.868Z,83.11
2022-12-29T02:57:45.211Z,84.54
2022-12-29T03:00:16.899Z,84.75
2022-12-29T03:02:57.494Z,84.99
2022-12-29T03:05:43.540Z,85.40
2022-12-29T03:09:18.681Z,85.51
2022-12-29T03:12:11.753Z,87.25
2022-12-29T03:15:04.401Z,86.85
2022-12-29T03:17:36.756Z,87.67
2022-12-29T03:20:09.484Z,87.50
2022-12-29T03:22:43.996Z,86.99
2022-12-29T03:25:21.792Z,86.66
2022-12-29T03:27:54.161Z,85.82
2022-12-29T03:30:22.361Z,85.47
2022-12-29T03:32:54.471Z,86.97
2022-12-29T03:35:28.331Z,86.84
2022-12-29T03:38:04.279Z,87.38
2022-12-29T03:40:33.759Z,88.07
2022-12-29T03:43:02.529Z,88.06
2022-12-29T03:45:31.253Z,88.46
2022-12-29T03:47:58.490Z,88.22
2022-12-29T03:50:26.879Z,89.05
2022-12-29T03:52:54.060Z,88.27
2022-12-29T03:55:21.465Z,89.23
2022-12-29T03:57:48.584Z,87.57
2022-12-29T04:00:21.232Z,86.67
2022-12-29T04:02:50.878Z,85.63
2022-12-29T04:05:23.575Z,84.37
2022-12-29T04:07:53.833Z,84.12
2022-12-29T04:10:20.977Z,84.85
2022-12-29T04:12:50.657Z,84.58
2022-12-29T04:15:17.837Z,83.72
2022-12-29T04:17:45.672Z,83.00
2022-12-29T04:20:31.712Z,82.65
2022-12-29T04:23:05.053Z,82.78
2022-12-29T04:25:34.562Z,83.28
2022-12-29T04:28:02.834Z,82.31
2022-12-29T04:31:08.257Z,83.41
2022-12-29T04:33:37.866Z,83.86
2022-12-29T04:36:05.348Z,83.49
2022-12-29T04:38:33.107Z,84.59
2022-12-29T04:41:03.915Z,83.86
2022-12-29T04:43:31.492Z,84.13
2022-12-29T04:46:18.935Z,84.72
2022-12-29T04:49:09.930Z,84.07
2022-12-29T04:51:51.055Z,84.33
2022-12-29T04:54:19.129Z,83.47
2022-12-29T04:56:51.942Z,84.76
2022-12-29T04:59:19.577Z,84.54
2022-12-29T05:01:49.894Z,83.56
2022-12-29T05:04:17.587Z,82.43
2022-12-29T05:06:45.001Z,83.33
2022-12-29T05:09:12.439Z,83.88
2022-12-29T05:11:39.676Z,83.82
2022-12-29T05:14:07.027Z,83.69
2022-12-29T05:16:36.275Z,83.38
2022-12-29T05:19:03.571Z,83.05
2022-12-29T05:21:34.181Z,82.54
2022-12-29T05:24:01.650Z,82.99
2022-12-29T05:26:29.560Z,83.61
2022-12-29T05:29:04.432Z,82.80
2022-12-29T05:31:33.391Z,82.39
2022-12-29T05:34:01.438Z,82.77
2022-12-29T05:36:34.432Z,82.19
2022-12-29T05:39:05.381Z,82.13
2022-12-29T05:41:34.926Z,83.20
2022-12-29T05:44:28.472Z,82.73
2022-12-29T05:47:15.843Z,83.37
2022-12-29T05:50:01.719Z,82.36
2022-12-29T05:53:01.253Z,82.99
2022-12-29T05:55:29.438Z,82.43
2022-12-29T05:57:57.777Z,81.71
2022-12-29T06:00:25.078Z,82.05
2022-12-29T06:02:53.086Z,83.63
2022-12-29T06:05:21.072Z,84.87
2022-12-29T06:07:48.438Z,85.11
2022-12-29T06:10:17.660Z,83.80
2022-12-29T06:12:54.184Z,84.10
2022-12-29T06:15:21.796Z,82.75
2022-12-29T06:17:50.947Z,81.86
2022-12-29T06:20:18.513Z,83.79
2022-12-29T06:22:46.503Z,82.01
2022-12-29T06:25:14.559Z,82.14
2022-12-29T06:27:44.365Z,82.12
2022-12-29T06:30:12.317Z,82.32
2022-12-29T06:32:40.956Z,81.87
2022-12-29T06:35:11.105Z,82.69
2022-12-29T06:37:43.211Z,81.74
2022-12-29T06:40:11.128Z,81.59
2022-12-29T06:43:08.514Z,82.31
2022-12-29T06:45:54.143Z,83.46
2022-12-29T06:48:21.336Z,83.32
2022-12-29T06:50:48.428Z,82.68
2022-12-29T06:53:15.793Z,83.91
2022-12-29T06:55:43.520Z,83.42
2022-12-29T06:58:10.624Z,82.68
2022-12-29T07:00:37.770Z,81.32
2022-12-29T07:03:05.354Z,81.07
2022-12-29T07:05:33.746Z,81.58
2022-12-29T07:08:01.412Z,82.10
2022-12-29T07:10:29.201Z,82.50
2022-12-29T07:12:56.310Z,81.97
2022-12-29T07:15:23.455Z,81.58
2022-12-29T07:17:53.515Z,81.28
2022-12-29T07:20:26.549Z,80.88
2022-12-29T07:22:54.758Z,80.75
2022-12-29T07:25:22.136Z,81.56
2022-12-29T07:27:49.780Z,80.21
2022-12-29T07:30:17.141Z,80.34
2022-12-29T07:32:44.630Z,79.16
2022-12-29T07:35:11.752Z,79.13
2022-12-29T07:37:38.899Z,78.60
2022-12-29T07:40:06.653Z,78.31
2022-12-29T07:42:33.819Z,78.24
2022-12-29T07:45:01.355Z,77.80
2022-12-29T07:47:37.613Z,76.64
2022-12-29T07:50:05.753Z,76.81
2022-12-29T07:52:32.885Z,75.61
2022-12-29T07:55:00.325Z,76.44
2022-12-29T07:57:31.736Z,76.52
2022-12-29T08:00:02.795Z,77.65
2022-12-29T08:02:39.428Z,77.92
2022-12-29T08:05:07.200Z,78.92
2022-12-29T08:07:34.361Z,77.97
2022-12-29T08:10:02.592Z,75.23
2022-12-29T08:12:30.711Z,74.75
2022-12-29T08:14:57.858Z,75.38
2022-12-29T08:17:25.015Z,75.33
2022-12-29T08:19:52.142Z,76.92
2022-12-29T08:22:19.232Z,76.94
2022-12-29T08:24:46.405Z,76.58
2022-12-29T08:27:20.477Z,76.93
2022-12-29T08:29:48.435Z,77.02
2022-12-29T08:32:15.999Z,76.72
2022-12-29T08:34:43.196Z,77.28
2022-12-29T08:37:10.449Z,77.31
2022-12-29T08:39:37.535Z,76.77
2022-12-29T08:42:04.674Z,76.93
2022-12-29T08:44:31.752Z,75.21
2022-12-29T08:47:00.699Z,73.04
2022-12-29T08:49:27.921Z,72.21
2022-12-29T08:51:55.026Z,73.38
2022-12-29T08:54:22.121Z,73.48
2022-12-29T08:56:49.744Z,73.23
2022-12-29T08:59:18.263Z,74.19
2022-12-29T09:01:47.904Z,73.62
2022-12-29T09:04:16.879Z,72.50
2022-12-29T09:06:46.123Z,72.77
2022-12-29T09:09:13.693Z,71.93
2022-12-29T09:11:40.890Z,72.05
2022-12-29T09:14:08.123Z,69.11
2022-12-29T09:16:36.339Z,69.84
2022-12-29T09:19:04.166Z,70.37
2022-12-29T09:21:31.989Z,70.90
2022-12-29T09:23:59.241Z,71.17
2022-12-29T09:26:26.377Z,70.32
2022-12-29T09:28:53.914Z,70.93
2022-12-29T09:31:21.234Z,69.57
2022-12-29T09:33:48.440Z,69.72
2022-12-29T09:36:15.548Z,69.38
2022-12-29T09:38:43.187Z,68.84
2022-12-29T09:41:35.661Z,71.71
2022-12-29T09:44:27.506Z,72.59
2022-12-29T09:46:56.824Z,72.75
2022-12-29T09:49:51.466Z,71.44
2022-12-29T09:52:30.714Z,70.58
2022-12-29T09:55:06.358Z,70.14
2022-12-29T09:57:53.776Z,70.53
2022-12-29T10:00:39.821Z,69.53
2022-12-29T10:03:18.915Z,68.98
2022-12-29T10:06:15.245Z,68.82
2022-12-29T10:09:00.916Z,68.57
2022-12-29T10:11:55.824Z,68.22
2022-12-29T10:14:22.861Z,69.04
2022-12-29T10:17:12.198Z,71.95
2022-12-29T10:20:07.989Z,72.30
2022-12-29T10:22:53.854Z,72.28
2022-12-29T10:25:28.440Z,73.05
2022-12-29T10:28:04.367Z,73.41
2022-12-29T10:30:35.589Z,72.54
2022-12-29T10:33:08.876Z,71.57
2022-12-29T10:35:40.156Z,71.22
2022-12-29T10:39:00.046Z,70.26
2022-12-29T10:41:39.725Z,69.29
2022-12-29T10:44:12.480Z,69.56
2022-12-29T10:46:39.594Z,72.27
2022-12-29T10:49:16.582Z,72.07
2022-12-29T10:51:49.841Z,72.80
2022-12-29T10:54:26.854Z,73.25
2022-12-29T10:57:00.856Z,72.91
2022-12-29T10:59:32.043Z,71.55
2022-12-29T11:02:11.200Z,72.04
2022-12-29T11:05:10.099Z,71.96
2022-12-29T11:07:37.994Z,70.27
2022-12-29T11:10:30.299Z,70.27
2022-12-29T11:13:02.490Z,69.39
2022-12-29T11:15:44.149Z,68.25
2022-12-29T11:18:41.008Z,69.51
2022-12-29T11:21:27.416Z,68.64
2022-12-29T11:24:00.602Z,67.80
2022-12-29T11:26:34.056Z,68.21
2022-12-29T11:29:28.063Z,68.43
2022-12-29T11:32:00.463Z,68.20
2022-12-29T11:34:36.468Z,68.02
2022-12-29T11:37:07.413Z,67.72
2022-12-29T11:39:37.849Z,67.95
2022-12-29T11:42:10.577Z,67.27
2022-12-29T11:44:39.686Z,68.54
2022-12-29T11:47:13.757Z,67.26
2022-12-29T11:49:40.957Z,67.54
2022-12-29T11:52:08.423Z,68.45
2022-12-29T11:54:39.235Z,69.12
2022-12-29T11:57:16.345Z,68.94
2022-12-29T11:59:49.503Z,68.73
2022-12-29T12:02:43.048Z,68.11
2022-12-29T12:05:36.929Z,68.72
2022-12-29T12:08:21.035Z,69.45
2022-12-29T12:11:00.160Z,70.45
2022-12-29T12:14:01.704Z,69.91
2022-12-29T12:16:39.755Z,70.18
2022-12-29T12:19:22.106Z,70.28
2022-12-29T12:21:57.370Z,70.65
2022-12-29T12:24:33.653Z,70.82
2022-12-29T12:27:09.614Z,70.05
2022-12-29T12:30:05.181Z,69.32
2022-12-29T12:32:54.098Z,69.08
2022-12-29T12:35:33.322Z,69.66
2022-12-29T12:38:29.635Z,70.04
2022-12-29T12:41:14.393Z,69.62
2022-12-29T12:44:06.595Z,70.00
2022-12-29T12:47:04.733Z,70.27
2022-12-29T12:50:03.968Z,70.36
2022-12-29T12:52:51.326Z,70.42
2022-12-29T12:55:35.594Z,69.83
2022-12-29T12:58:17.063Z,70.64
2022-12-29T13:01:09.299Z,71.36
2022-12-29T13:03:57.930Z,71.59
2022-12-29T13:06:30.756Z,72.16
2022-12-29T13:09:11.733Z,72.64
2022-12-29T13:11:56.211Z,72.34
2022-12-29T13:14:44.345Z,72.78
2022-12-29T13:17:11.394Z,74.03
2022-12-29T13:19:44.037Z,74.13
2022-12-29T13:22:40.872Z,73.94
2022-12-29T13:25:23.953Z,73.28
2022-12-29T13:28:13.962Z,72.13
2022-12-29T13:31:11.738Z,73.16
2022-12-29T13:33:53.889Z,72.95
2022-12-29T13:36:30.734Z,72.81
2022-12-29T13:39:07.348Z,72.03
2022-12-29T13:41:43.858Z,74.41
2022-12-29T13:44:20.245Z,74.19
2022-12-29T13:46:47.981Z,73.77
2022-12-29T13:49:25.510Z,73.13
2022-12-29T13:52:19.159Z,73.03
2022-12-29T13:55:10.626Z,73.56
2022-12-29T13:57:47.027Z,74.33
2022-12-29T14:00:18.118Z,75.44
2022-12-29T14:02:48.430Z,77.52
2022-12-29T14:05:21.570Z,77.41
2022-12-29T14:07:57.806Z,76.60
2022-12-29T14:10:46.756Z,77.12
2022-12-29T14:13:26.723Z,77.18
2022-12-29T14:16:01.154Z,76.54
2022-12-29T14:18:32.895Z,75.20
2022-12-29T14:21:10.329Z,74.81
2022-12-29T14:23:43.308Z,75.18
2022-12-29T14:26:17.371Z,74.34
2022-12-29T14:28:47.105Z,73.68
2022-12-29T14:31:20.520Z,74.01
2022-12-29T14:34:12.569Z,73.85
2022-12-29T14:36:58.520Z,73.38
2022-12-29T14:39:39.918Z,72.90
2022-12-29T14:42:09.906Z,73.12
2022-12-29T14:44:51.646Z,72.04
2022-12-29T14:47:32.659Z,73.67
2022-12-29T14:50:09.845Z,74.10
2022-12-29T14:52:47.793Z,74.03
2022-12-29T14:55:17.640Z,74.32
2022-12-29T14:57:58.426Z,73.95
2022-12-29T15:00:31.262Z,74.38
2022-12-29T15:03:13.474Z,74.75
2022-12-29T15:05:51.521Z,73.77
2022-12-29T15:08:24.168Z,74.13
2022-12-29T15:11:06.320Z,73.16
2022-12-29T15:13:36.909Z,74.66
2022-12-29T15:16:05.392Z,74.75
2022-12-29T15:18:34.306Z,74.32
2022-12-29T15:21:06.222Z,75.21
2022-12-29T15:23:36.097Z,76.21
2022-12-29T15:26:08.848Z,76.82
2022-12-29T15:28:47.410Z,76.74
2022-12-29T15:31:30.086Z,75.35
2022-12-29T15:34:24.604Z,76.17
2022-12-29T15:36:52.316Z,75.89
2022-12-29T15:39:30.016Z,76.33
2022-12-29T15:42:05.238Z,76.04
2022-12-29T15:44:44.960Z,76.09
2022-12-29T15:47:29.744Z,77.44
2022-12-29T15:50:21.138Z,77.01
2022-12-29T15:52:49.177Z,77.61
2022-12-29T15:55:25.378Z,77.36
2022-12-29T15:57:57.651Z,77.21
2022-12-29T16:00:30.800Z,77.08
2022-12-29T16:03:01.600Z,77.90
2022-12-29T16:05:41.228Z,76.80
2022-12-29T16:08:33.832Z,78.48
2022-12-29T16:11:04.067Z,78.47
2022-12-29T16:13:40.540Z,78.12
2022-12-29T16:16:17.184Z,77.43
2022-12-29T16:18:45.755Z,78.08
2022-12-29T16:21:27.618Z,78.30
2022-12-29T16:23:58.470Z,77.51
2022-12-29T16:26:25.843Z,79.94
2022-12-29T16:28:58.226Z,81.13
2022-12-29T16:31:37.505Z,81.79
2022-12-29T16:34:25.329Z,83.30
2022-12-29T16:37:20.299Z,82.61
2022-12-29T16:39:47.484Z,82.23
2022-12-29T16:42:51.381Z,80.87
2022-12-29T16:45:24.876Z,82.36
2022-12-29T16:48:07.204Z,82.32
2022-12-29T16:50:36.720Z,85.39
2022-12-29T16:53:05.686Z,89.17
2022-12-29T16:55:33.823Z,88.07
2022-12-29T16:58:01.877Z,86.55
2022-12-29T17:00:36.415Z,83.72
2022-12-29T17:03:04.782Z,83.45
2022-12-29T17:05:32.052Z,82.29
2022-12-29T17:08:02.180Z,82.74
2022-12-29T17:10:48.187Z,81.62
2022-12-29T17:13:15.309Z,79.51
2022-12-29T17:15:42.573Z,80.81
2022-12-29T17:18:13.823Z,82.80
2022-12-29T17:20:41.464Z,85.56
2022-12-29T17:23:22.625Z,87.01
2022-12-29T17:25:51.835Z,86.04
2022-12-29T17:28:27.392Z,89.17
2022-12-29T17:30:59.435Z,90.35
2022-12-29T17:33:26.718Z,90.80
2022-12-29T17:35:55.940Z,87.89
2022-12-29T17:38:31.497Z,86.38
2022-12-29T17:40:59.857Z,86.76
2022-12-29T17:43:33.029Z,85.98
2022-12-29T17:46:06.811Z,85.32
2022-12-29T17:48:34.237Z,83.84
2022-12-29T17:51:01.619Z,84.38
2022-12-29T17:53:30.743Z,82.32
2022-12-29T17:55:58.225Z,84.07
2022-12-29T17:58:28.119Z,83.85
2022-12-29T18:00:58.240Z,82.27
2022-12-29T18:03:30.558Z,85.56
2022-12-29T18:05:58.173Z,86.61
2022-12-29T18:08:25.313Z,86.28
2022-12-29T18:10:55.323Z,87.76
2022-12-29T18:13:41.594Z,85.46
2022-12-29T18:16:12.599Z,87.42
2022-12-29T18:18:39.772Z,87.05
2022-12-29T18:21:07.127Z,86.65
2022-12-29T18:23:37.015Z,84.32
2022-12-29T18:26:27.680Z,83.98
2022-12-29T18:28:56.560Z,84.12
2022-12-29T18:31:35.338Z,81.69
2022-12-29T18:34:07.644Z,85.35
2022-12-29T18:36:34.812Z,87.34
2022-12-29T18:39:01.887Z,86.54
2022-12-29T18:41:32.467Z,84.40
2022-12-29T18:44:00.275Z,82.23
2022-12-29T18:46:27.574Z,85.38
2022-12-29T18:48:54.897Z,84.99
2022-12-29T18:51:24.675Z,84.24
2022-12-29T18:53:54.283Z,83.08
2022-12-29T18:56:22.956Z,81.77
2022-12-29T18:58:51.093Z,82.82
2022-12-29T19:01:26.119Z,82.88
2022-12-29T19:03:53.874Z,84.08
2022-12-29T19:06:21.707Z,84.90
2022-12-29T19:08:48.882Z,85.33
2022-12-29T19:11:16.226Z,84.50
2022-12-29T19:13:43.349Z,86.52
2022-12-29T19:16:19.661Z,86.68
2022-12-29T19:18:58.127Z,84.65
2022-12-29T19:21:33.991Z,85.70
2022-12-29T19:24:01.134Z,87.05
2022-12-29T19:26:31.175Z,87.87
2022-12-29T19:28:59.680Z,86.63
2022-12-29T19:31:26.894Z,84.99
2022-12-29T19:33:54.422Z,85.11
2022-12-29T19:36:22.476Z,84.87
2022-12-29T19:38:49.883Z,82.86
2022-12-29T19:41:17.169Z,82.08
2022-12-29T19:43:44.655Z,80.54
2022-12-29T19:46:16.011Z,82.87
2022-12-29T19:48:43.187Z,83.52
2022-12-29T19:51:17.328Z,84.69
2022-12-29T19:53:45.841Z,83.72
2022-12-29T19:56:14.389Z,82.92
2022-12-29T19:58:46.589Z,83.01
2022-12-29T20:01:22.958Z,84.59
2022-12-29T20:03:51.295Z,85.60
2022-12-29T20:06:19.093Z,84.95
2022-12-29T20:08:46.299Z,84.30
2022-12-29T20:11:16.654Z,85.27
2022-12-29T20:13:44.607Z,85.94
2022-12-29T20:16:14.820Z,84.11
2022-12-29T20:18:42.639Z,82.06
2022-12-29T20:21:21.645Z,83.89
2022-12-29T20:23:49.776Z,84.06
2022-12-29T20:26:28.698Z,83.21
2022-12-29T20:28:58.219Z,84.01
2022-12-29T20:31:32.401Z,83.04
2022-12-29T20:33:59.870Z,83.31
2022-12-29T20:36:30.201Z,82.79
2022-12-29T20:38:59.695Z,83.17
2022-12-29T20:41:27.435Z,83.22
2022-12-29T20:43:54.678Z,84.40
2022-12-29T20:46:25.195Z,84.09
2022-12-29T20:48:53.970Z,83.20
2022-12-29T20:51:21.597Z,83.96
2022-12-29T20:53:49.427Z,84.00
2022-12-29T20:56:19.839Z,83.00
2022-12-29T20:59:17.606Z,83.57
2022-12-29T21:01:35.573Z,83.44
2022-12-29T21:04:03.388Z,83.08
2022-12-29T21:06:30.603Z,83.03
2022-12-29T21:08:57.959Z,84.56
2022-12-29T21:11:25.090Z,83.15
2022-12-29T21:13:52.267Z,84.46
2022-12-29T21:16:21.276Z,87.28
2022-12-29T21:18:49.226Z,90.43
2022-12-29T21:21:19.910Z,91.82
2022-12-29T21:23:47.272Z,93.12
2022-12-29T21:26:17.387Z,93.46
2022-12-29T21:28:46.273Z,90.50
2022-12-29T21:31:20.484Z,89.48
2022-12-29T21:33:47.612Z,88.79
2022-12-29T21:36:14.750Z,87.27
2022-12-29T21:38:42.068Z,87.30
2022-12-29T21:41:11.465Z,87.95
2022-12-29T21:43:38.887Z,91.07
2022-12-29T21:46:06.700Z,94.74
2022-12-29T21:48:34.324Z,95.09
2022-12-29T21:51:30.800Z,94.63
2022-12-29T21:54:20.432Z,95.40
2022-12-29T21:56:48.711Z,99.82
2022-12-29T21:59:35.184Z,98.52
2022-12-29T22:02:22.813Z,96.66
2022-12-29T22:05:08.900Z,94.86
2022-12-29T22:07:55.472Z,90.06
2022-12-29T22:10:41.129Z,89.83
2022-12-29T22:13:08.216Z,91.78
2022-12-29T22:15:37.527Z,90.72
2022-12-29T22:18:05.199Z,90.85
2022-12-29T22:20:35.283Z,90.34
2022-12-29T22:23:02.726Z,89.20
2022-12-29T22:25:29.896Z,87.22
2022-12-29T22:27:59.404Z,87.01
2022-12-29T22:30:29.909Z,86.39
2022-12-29T22:32:58.436Z,86.58
2022-12-29T22:35:25.727Z,85.56
2022-12-29T22:37:53.086Z,85.43
2022-12-29T22:40:20.714Z,85.01
2022-12-29T22:42:47.964Z,84.04
2022-12-29T22:45:15.210Z,84.48
2022-12-29T22:47:42.313Z,84.17
2022-12-29T22:50:09.824Z,84.53
2022-12-29T22:52:37.005Z,84.56
2022-12-29T22:55:07.219Z,84.59
2022-12-29T22:57:36.088Z,84.55
2022-12-29T23:00:06.602Z,85.03
2022-12-29T23:02:34.939Z,83.58
2022-12-29T23:05:04.741Z,86.16
2022-12-29T23:07:34.692Z,86.64
2022-12-29T23:10:03.055Z,85.31
2022-12-29T23:12:31.699Z,85.49
2022-12-29T23:14:58.994Z,86.01
2022-12-29T23:17:26.639Z,85.99
2022-12-29T23:19:54.193Z,87.71
2022-12-29T23:22:23.093Z,89.51
2022-12-29T23:24:50.290Z,89.51
2022-12-29T23:27:17.388Z,89.08
2022-12-29T23:29:44.480Z,86.29
2022-12-29T23:32:11.651Z,84.55
2022-12-29T23:34:38.784Z,87.05
2022-12-29T23:37:05.868Z,85.63
2022-12-29T23:39:32.976Z,88.91
2022-12-29T23:42:00.091Z,88.50
2022-12-29T23:44:27.239Z,88.31
2022-12-29T23:46:54.440Z,86.81
2022-12-29T23:49:21.536Z,85.70
2022-12-29T23:51:48.577Z,86.28
2022-12-29T23:54:15.706Z,85.56
2022-12-29T23:56:42.802Z,84.85
2022-12-29T23:59:09.963Z,85.51
